createdAt,value
2019-02-26T00:00:36.747Z,18.200001
2019-02-26T00:06:01.543Z,17.4
2019-02-26T00:11:24.837Z,17.6
2019-02-26T00:16:48.738Z,17.799999
2019-02-26T00:22:11.996Z,16.200001
2019-02-26T00:27:35.114Z,16.1
2019-02-26T00:32:59.615Z,16.5
2019-02-26T00:38:21.195Z,16.5
2019-02-26T00:43:43.883Z,17.6
2019-02-26T00:49:07.588Z,16.6
2019-02-26T00:54:31.830Z,16
2019-02-26T00:59:55.026Z,16.700001
2019-02-26T01:05:17.669Z,16.799999
2019-02-26T01:10:41.516Z,17.299999
2019-02-26T01:16:04.159Z,17.1
2019-02-26T01:21:29.013Z,17
2019-02-26T01:26:51.955Z,16.9
2019-02-26T01:32:15.508Z,17.1
2019-02-26T01:37:38.626Z,16.6
2019-02-26T01:43:03.027Z,16.299999
2019-02-26T01:48:25.912Z,16.6
2019-02-26T01:53:49.634Z,17
2019-02-26T01:59:12.406Z,17
2019-02-26T02:04:36.937Z,16.200001
2019-02-26T02:10:00.469Z,16.5
2019-02-26T02:15:23.676Z,15.8
2019-02-26T02:20:46.487Z,16.700001
2019-02-26T02:26:10.983Z,17.299999
2019-02-26T02:31:34.724Z,17
2019-02-26T02:36:56.590Z,16.4
2019-02-26T02:42:21.988Z,16.9
2019-02-26T02:47:43.813Z,17.5
2019-02-26T02:53:06.691Z,16.700001
2019-02-26T02:58:29.400Z,16.4
2019-02-26T03:03:53.540Z,15.8
2019-02-26T03:09:17.615Z,16.799999
2019-02-26T03:14:41.912Z,16.5
2019-02-26T03:20:04.822Z,16.9
2019-02-26T03:25:29.093Z,15.4
2019-02-26T03:30:51.524Z,16.799999
2019-02-26T03:36:16.490Z,17.1
2019-02-26T03:41:37.987Z,17.5
2019-02-26T03:47:00.640Z,17.700001
2019-02-26T03:52:23.411Z,17.6
2019-02-26T03:57:48.066Z,18
2019-02-26T04:03:12.392Z,17
2019-02-26T04:08:34.180Z,16.799999
2019-02-26T04:13:56.844Z,17
2019-02-26T04:19:19.518Z,18
2019-02-26T04:24:43.194Z,17
2019-02-26T04:30:08.185Z,17.200001
2019-02-26T04:35:30.597Z,17.5
2019-02-26T04:40:55.347Z,18.1
2019-02-26T04:46:17.871Z,17.200001
2019-02-26T04:51:42.612Z,17.799999
2019-02-26T04:57:04.702Z,18
2019-02-26T05:02:27.368Z,17.9
2019-02-26T05:07:50.095Z,17.6
2019-02-26T05:13:12.899Z,18.4
2019-02-26T05:18:35.501Z,17.9
2019-02-26T05:24:00.146Z,17.9
2019-02-26T05:29:22.930Z,17.700001
2019-02-26T05:34:48.053Z,18.299999
2019-02-26T05:40:12.656Z,17.9
2019-02-26T05:45:35.590Z,18.4
2019-02-26T05:50:59.951Z,18.6
2019-02-26T05:56:22.878Z,18.1
2019-02-26T06:01:46.525Z,19.700001
2019-02-26T06:07:08.727Z,24
2019-02-26T06:12:32.598Z,20.6
2019-02-26T06:17:55.916Z,20.9
2019-02-26T06:23:17.916Z,20
2019-02-26T06:28:42.817Z,19.6
2019-02-26T06:34:06.323Z,19.4
2019-02-26T06:39:29.739Z,18.9
2019-02-26T06:44:51.825Z,19.299999
2019-02-26T06:50:16.399Z,18.799999
2019-02-26T06:55:38.175Z,18.9
2019-02-26T07:01:00.898Z,19.4
2019-02-26T07:06:25.476Z,18.9
2019-02-26T07:11:47.371Z,20.1
2019-02-26T07:17:10.180Z,20.1
2019-02-26T07:22:33.052Z,17.700001
2019-02-26T07:27:56.257Z,18.799999
2019-02-26T07:33:19.668Z,19
2019-02-26T07:38:51.915Z,17.799999
2019-02-26T07:44:16.295Z,18.5
2019-02-26T07:49:38.283Z,17.4
2019-02-26T07:55:00.959Z,17.799999
2019-02-26T08:00:23.639Z,17.700001
2019-02-26T08:05:47.410Z,18.1
2019-02-26T08:11:14.843Z,18
2019-02-26T08:16:36.649Z,19.200001
2019-02-26T08:22:01.268Z,17.9
2019-02-26T08:27:23.909Z,18
2019-02-26T08:32:49.229Z,17.700001
2019-02-26T08:38:10.201Z,19.299999
2019-02-26T08:43:32.948Z,18.299999
2019-02-26T08:48:55.619Z,19.200001
2019-02-26T08:54:21.010Z,20
2019-02-26T08:59:42.582Z,19.5
2019-02-26T09:05:07.393Z,20.9
2019-02-26T09:10:29.197Z,21.4
2019-02-26T09:15:52.005Z,19.4
2019-02-26T09:21:15.243Z,19.6
2019-02-26T09:26:37.357Z,20.200001
2019-02-26T09:32:00.024Z,19.299999
2019-02-26T09:37:22.768Z,19.9
2019-02-26T09:42:46.721Z,19.200001
2019-02-26T09:48:10.330Z,19.5
2019-02-26T09:53:32.780Z,19.5
2019-02-26T09:58:55.490Z,19.799999
2019-02-26T10:04:19.687Z,20.200001
2019-02-26T10:09:45.836Z,20.6
2019-02-26T10:15:05.427Z,21.1
2019-02-26T10:20:31.150Z,20.299999
2019-02-26T10:25:53.751Z,21.200001
2019-02-26T10:31:15.408Z,20.1
2019-02-26T10:36:41.159Z,20.799999
2019-02-26T10:42:02.598Z,21.299999
2019-02-26T10:47:25.066Z,20.6
2019-02-26T10:52:48.201Z,21.700001
2019-02-26T10:58:13.094Z,21.5
2019-02-26T11:03:36.007Z,22.299999
2019-02-26T11:08:59.213Z,21.799999
2019-02-26T11:14:22.127Z,22.299999
2019-02-26T11:19:44.784Z,22.4
2019-02-26T11:25:07.408Z,22.1
2019-02-26T11:30:32.089Z,22.1
2019-02-26T11:35:53.870Z,22.700001
2019-02-26T11:41:16.578Z,22.799999
2019-02-26T11:46:39.685Z,23.299999
2019-02-26T11:52:04.334Z,22.799999
2019-02-26T11:57:25.573Z,23.4
2019-02-26T12:02:47.682Z,22.6
2019-02-26T12:08:11.421Z,22.5
2019-02-26T12:13:39.489Z,22.6
2019-02-26T12:19:01.745Z,21.799999
2019-02-26T12:24:26.383Z,22.700001
2019-02-26T12:29:49.012Z,20.200001
2019-02-26T12:35:12.666Z,19.6
2019-02-26T12:40:37.778Z,19.5
2019-02-26T12:46:01.248Z,18.5
2019-02-26T12:51:25.250Z,21.1
2019-02-26T12:56:46.455Z,21.4
2019-02-26T13:02:12.855Z,21.5
2019-02-26T13:07:34.653Z,21.1
2019-02-26T13:12:59.920Z,21.4
2019-02-26T13:18:21.018Z,17.5
2019-02-26T13:23:44.722Z,20.799999
2019-02-26T13:29:07.280Z,19.799999
2019-02-26T13:34:29.942Z,19.9
2019-02-26T13:39:52.697Z,20.200001
2019-02-26T13:45:15.301Z,19.6
2019-02-26T13:50:39.060Z,18.9
2019-02-26T13:56:01.454Z,18.1
2019-02-26T14:01:24.083Z,18.6
2019-02-26T14:06:47.685Z,18.5
2019-02-26T14:12:10.309Z,17.700001
2019-02-26T14:17:33.018Z,17.5
2019-02-26T14:22:55.637Z,16.200001
2019-02-26T14:28:18.345Z,16.799999
2019-02-26T14:33:41.658Z,16.6
2019-02-26T14:39:04.350Z,16.6
2019-02-26T14:44:27.000Z,16.799999
2019-02-26T14:49:49.632Z,15.7
2019-02-26T14:55:12.291Z,15.9
2019-02-26T15:00:36.918Z,15.2
2019-02-26T15:05:59.661Z,15.3
2019-02-26T15:11:22.268Z,14.7
2019-02-26T15:16:45.038Z,14
2019-02-26T15:22:07.694Z,14.1
2019-02-26T15:27:36.043Z,14.8
2019-02-26T15:32:54.726Z,14.2
2019-02-26T15:38:17.465Z,14.2
2019-02-26T15:43:40.127Z,14.5
2019-02-26T15:49:07.235Z,14.4
2019-02-26T15:54:27.286Z,13.8
2019-02-26T15:59:51.245Z,13.1
2019-02-26T16:05:13.447Z,13.6
2019-02-26T16:10:36.089Z,13.9
2019-02-26T16:15:59.745Z,13.2
2019-02-26T16:21:22.452Z,13.7
2019-02-26T16:26:45.067Z,14.1
2019-02-26T16:32:07.819Z,14.8
2019-02-26T16:37:30.583Z,14.6
2019-02-26T16:42:53.259Z,14.1
2019-02-26T16:48:16.055Z,13.9
2019-02-26T16:53:38.664Z,14.5
2019-02-26T16:59:02.279Z,14
2019-02-26T17:04:24.947Z,14
2019-02-26T17:09:47.711Z,14.4
2019-02-26T17:15:10.553Z,14.2
2019-02-26T17:20:33.175Z,14.4
2019-02-26T17:25:55.898Z,14.1
2019-02-26T17:31:20.554Z,14.2
2019-02-26T17:36:43.243Z,17.5
2019-02-26T17:42:05.956Z,26.6
2019-02-26T17:47:28.781Z,21.5
2019-02-26T17:52:51.508Z,15.4
2019-02-26T17:58:14.207Z,15.7
2019-02-26T18:03:37.057Z,15.3
2019-02-26T18:08:59.814Z,15.4
2019-02-26T18:14:22.606Z,15.4
2019-02-26T18:19:49.380Z,15.7
2019-02-26T18:25:09.179Z,15.7
2019-02-26T18:30:32.304Z,16.299999
2019-02-26T18:35:55.048Z,16.5
2019-02-26T18:41:17.729Z,15.6
2019-02-26T18:46:40.939Z,14.8
2019-02-26T18:52:03.565Z,15.4
2019-02-26T18:57:26.458Z,15.8
2019-02-26T19:02:49.187Z,15.1
2019-02-26T19:08:12.219Z,14.8
2019-02-26T19:13:38.128Z,15
2019-02-26T19:19:01.554Z,15.2
2019-02-26T19:24:24.503Z,14
2019-02-26T19:29:48.322Z,16.9
2019-02-26T19:35:12.368Z,16
2019-02-26T19:40:34.103Z,14.9
2019-02-26T19:45:57.013Z,14.6
2019-02-26T19:51:22.060Z,13.4
2019-02-26T19:56:43.696Z,13.8
2019-02-26T20:02:06.499Z,13.6
2019-02-26T20:07:29.727Z,14
2019-02-26T20:12:54.047Z,13.5
2019-02-26T20:18:20.391Z,15.5
2019-02-26T20:23:41.968Z,15.3
2019-02-26T20:29:07.550Z,14.4
2019-02-26T20:34:27.778Z,14.3
2019-02-26T20:39:50.571Z,13.8
2019-02-26T20:45:17.686Z,13.7
2019-02-26T20:50:37.137Z,13.9
2019-02-26T20:55:59.776Z,13.8
2019-02-26T21:01:22.510Z,13.4
2019-02-26T21:06:53.905Z,13.5
2019-02-26T21:12:17.154Z,13.4
2019-02-26T21:17:39.224Z,13.4
2019-02-26T21:23:01.999Z,13
2019-02-26T21:28:28.251Z,14
2019-02-26T21:33:51.191Z,13.9
2019-02-26T21:39:13.861Z,13.4
2019-02-26T21:44:36.644Z,14
2019-02-26T21:49:59.983Z,13.5
2019-02-26T21:55:43.775Z,14.1
2019-02-26T22:00:56.789Z,14.3
2019-02-26T22:06:19.436Z,13.9
2019-02-26T22:11:42.154Z,13.8
2019-02-26T22:17:05.734Z,14.4
2019-02-26T22:22:28.445Z,13
2019-02-26T22:27:51.152Z,13.6
2019-02-26T22:33:13.803Z,12.9
2019-02-26T22:38:36.542Z,12.6
2019-02-26T22:43:59.847Z,12.2
2019-02-26T22:49:22.816Z,12.4
2019-02-26T22:54:45.566Z,12.1
2019-02-26T23:00:10.751Z,10.7
2019-02-26T23:05:33.414Z,11
2019-02-26T23:10:57.365Z,9.9
2019-02-26T23:16:19.827Z,10.2
2019-02-26T23:21:42.592Z,10.5
2019-02-26T23:27:05.380Z,10.5
2019-02-26T23:32:28.030Z,11.4
2019-02-26T23:37:50.681Z,10.8
2019-02-26T23:43:13.319Z,10.6
2019-02-26T23:48:36.155Z,10.4
2019-02-26T23:53:58.843Z,11.4
2019-02-26T23:59:21.451Z,12.1
